createdAt,value
2022-07-29T00:02:17.097Z,80.06
2022-07-29T00:04:44.208Z,79.79
2022-07-29T00:07:11.135Z,79.50
2022-07-29T00:09:43.056Z,80.00
2022-07-29T00:12:26.117Z,80.50
2022-07-29T00:14:55.070Z,80.19
2022-07-29T00:17:22.400Z,80.39
2022-07-29T00:19:49.082Z,80.62
2022-07-29T00:22:15.953Z,79.89
2022-07-29T00:24:42.772Z,79.78
2022-07-29T00:27:09.462Z,80.99
2022-07-29T00:29:36.214Z,80.62
2022-07-29T00:32:03.816Z,80.71
2022-07-29T00:34:49.706Z,79.84
2022-07-29T00:37:16.465Z,80.10
2022-07-29T00:39:43.614Z,81.30
2022-07-29T00:42:10.833Z,81.04
2022-07-29T00:44:42.159Z,80.48
2022-07-29T00:47:10.741Z,80.03
2022-07-29T00:49:39.556Z,79.45
2022-07-29T00:52:07.622Z,79.81
2022-07-29T00:54:35.240Z,80.22
2022-07-29T00:57:04.222Z,79.77
2022-07-29T00:59:34.786Z,78.90
2022-07-29T01:02:03.399Z,78.92
2022-07-29T01:04:31.830Z,78.58
2022-07-29T01:06:59.579Z,79.99
2022-07-29T01:09:42.937Z,80.03
2022-07-29T01:12:17.797Z,80.25
2022-07-29T01:14:46.648Z,80.87
2022-07-29T01:17:21.525Z,81.20
2022-07-29T01:19:54.660Z,81.84
2022-07-29T01:22:36.335Z,81.91
2022-07-29T01:25:05.998Z,81.14
2022-07-29T01:28:03.669Z,81.68
2022-07-29T01:30:34.210Z,82.15
2022-07-29T01:33:04.199Z,83.15
2022-07-29T01:35:37.338Z,83.08
2022-07-29T01:38:13.605Z,83.61
2022-07-29T01:40:52.302Z,83.71
2022-07-29T01:43:28.511Z,84.45
2022-07-29T01:46:02.549Z,84.31
2022-07-29T01:48:38.556Z,84.45
2022-07-29T01:51:14.452Z,85.12
2022-07-29T01:54:00.452Z,85.74
2022-07-29T01:56:32.031Z,85.86
2022-07-29T01:58:59.984Z,86.93
2022-07-29T02:01:28.590Z,86.49
2022-07-29T02:03:57.695Z,86.32
2022-07-29T02:06:26.791Z,86.74
2022-07-29T02:08:54.777Z,86.56
2022-07-29T02:11:21.569Z,86.23
2022-07-29T02:13:49.701Z,86.39
2022-07-29T02:16:20.070Z,86.56
2022-07-29T02:18:50.507Z,86.81
2022-07-29T02:21:23.987Z,87.33
2022-07-29T02:23:53.958Z,87.69
2022-07-29T02:26:22.702Z,87.69
2022-07-29T02:28:53.472Z,88.07
2022-07-29T02:31:26.603Z,88.06
2022-07-29T02:33:55.763Z,88.17
2022-07-29T02:36:24.734Z,88.17
2022-07-29T02:38:52.866Z,88.66
2022-07-29T02:41:47.378Z,88.89
2022-07-29T02:44:17.375Z,87.96
2022-07-29T02:46:54.309Z,88.01
2022-07-29T02:49:33.029Z,88.33
2022-07-29T02:52:03.783Z,88.90
2022-07-29T02:54:36.380Z,88.45
2022-07-29T02:57:05.175Z,87.82
2022-07-29T02:59:35.390Z,87.82
2022-07-29T03:02:04.397Z,88.33
2022-07-29T03:04:33.353Z,88.59
2022-07-29T03:07:01.741Z,89.05
2022-07-29T03:09:29.193Z,89.10
2022-07-29T03:11:57.919Z,89.25
2022-07-29T03:14:25.428Z,89.55
2022-07-29T03:16:52.790Z,90.29
2022-07-29T03:19:21.360Z,90.46
2022-07-29T03:21:48.724Z,90.57
2022-07-29T03:24:33.397Z,90.40
2022-07-29T03:27:00.696Z,90.89
2022-07-29T03:29:33.130Z,90.90
2022-07-29T03:32:07.871Z,91.18
2022-07-29T03:34:37.449Z,91.30
2022-07-29T03:37:04.725Z,91.91
2022-07-29T03:39:37.533Z,91.05
2022-07-29T03:42:07.863Z,91.01
2022-07-29T03:44:35.950Z,90.93
2022-07-29T03:47:05.113Z,91.01
2022-07-29T03:49:32.352Z,91.36
2022-07-29T03:51:59.428Z,91.60
2022-07-29T03:54:26.915Z,91.27
2022-07-29T03:56:54.326Z,91.09
2022-07-29T03:59:22.548Z,90.71
2022-07-29T04:01:51.080Z,90.44
2022-07-29T04:04:18.402Z,90.10
2022-07-29T04:06:48.239Z,90.03
2022-07-29T04:09:15.168Z,89.88
2022-07-29T04:12:02.664Z,90.02
2022-07-29T04:14:29.171Z,90.48
2022-07-29T04:16:56.267Z,90.47
2022-07-29T04:19:23.786Z,90.33
2022-07-29T04:21:50.702Z,90.41
2022-07-29T04:24:18.232Z,90.05
2022-07-29T04:26:47.875Z,89.78
2022-07-29T04:29:15.395Z,89.72
2022-07-29T04:31:43.190Z,89.53
2022-07-29T04:34:10.815Z,89.09
2022-07-29T04:36:37.571Z,88.77
2022-07-29T04:39:05.556Z,88.46
2022-07-29T04:41:33.004Z,87.86
2022-07-29T04:44:05.997Z,87.38
2022-07-29T04:46:35.138Z,87.37
2022-07-29T04:49:02.151Z,87.52
2022-07-29T04:51:28.989Z,87.54
2022-07-29T04:53:55.705Z,87.22
2022-07-29T04:56:22.461Z,86.92
2022-07-29T04:58:49.139Z,86.66
2022-07-29T05:01:16.080Z,86.06
2022-07-29T05:03:43.060Z,85.45
2022-07-29T05:06:09.770Z,85.41
2022-07-29T05:08:36.424Z,85.60
2022-07-29T05:11:11.720Z,84.78
2022-07-29T05:13:45.756Z,83.92
2022-07-29T05:16:14.904Z,83.53
2022-07-29T05:18:42.160Z,82.51
2022-07-29T05:21:08.822Z,80.54
2022-07-29T05:23:35.496Z,79.68
2022-07-29T05:26:02.242Z,78.24
2022-07-29T05:28:28.939Z,77.56
2022-07-29T05:30:55.810Z,76.94
2022-07-29T05:33:34.793Z,75.87
2022-07-29T05:36:06.608Z,74.35
2022-07-29T05:38:34.169Z,74.30
2022-07-29T05:41:01.144Z,72.84
2022-07-29T05:43:30.011Z,72.07
2022-07-29T05:45:57.013Z,72.52
2022-07-29T05:48:24.184Z,70.47
2022-07-29T05:50:50.876Z,69.78
2022-07-29T05:53:19.553Z,70.93
2022-07-29T05:55:48.755Z,68.74
2022-07-29T05:58:15.463Z,70.90
2022-07-29T06:00:42.236Z,71.39
2022-07-29T06:03:08.947Z,71.23
2022-07-29T06:05:35.700Z,68.54
2022-07-29T06:08:02.515Z,67.38
2022-07-29T06:10:29.433Z,64.47
2022-07-29T06:12:56.151Z,64.19
2022-07-29T06:15:22.855Z,64.13
2022-07-29T06:17:59.132Z,66.91
2022-07-29T06:20:27.840Z,62.09
2022-07-29T06:22:54.593Z,63.65
2022-07-29T06:25:21.325Z,62.33
2022-07-29T06:27:47.971Z,64.73
2022-07-29T06:30:15.036Z,62.13
2022-07-29T06:32:43.389Z,63.21
2022-07-29T06:35:37.828Z,60.98
2022-07-29T06:37:59.570Z,62.94
2022-07-29T06:40:45.451Z,60.74
2022-07-29T06:43:12.187Z,61.87
2022-07-29T06:45:42.174Z,57.46
2022-07-29T06:48:09.914Z,57.74
2022-07-29T06:50:36.900Z,56.00
2022-07-29T06:53:04.211Z,56.69
2022-07-29T06:55:30.963Z,55.36
2022-07-29T06:57:57.579Z,52.38
2022-07-29T07:00:26.963Z,53.73
2022-07-29T07:02:53.633Z,51.28
2022-07-29T07:05:20.622Z,54.38
2022-07-29T07:07:47.309Z,50.29
2022-07-29T07:10:16.236Z,49.21
2022-07-29T07:12:42.948Z,49.52
2022-07-29T07:15:10.125Z,48.33
2022-07-29T07:17:36.831Z,45.76
2022-07-29T07:20:03.925Z,46.46
2022-07-29T07:22:33.415Z,46.94
2022-07-29T07:25:02.398Z,46.58
2022-07-29T07:27:29.279Z,45.95
2022-07-29T07:29:55.915Z,43.86
2022-07-29T07:32:22.649Z,45.97
2022-07-29T07:34:49.427Z,45.61
2022-07-29T07:37:16.186Z,43.95
2022-07-29T07:39:42.930Z,42.59
2022-07-29T07:42:11.351Z,43.89
2022-07-29T07:44:57.326Z,42.91
2022-07-29T07:47:25.625Z,42.25
2022-07-29T07:49:54.775Z,41.65
2022-07-29T07:52:22.556Z,41.30
2022-07-29T07:54:49.456Z,38.55
2022-07-29T07:57:16.783Z,37.66
2022-07-29T07:59:43.676Z,36.85
2022-07-29T08:02:10.764Z,37.46
2022-07-29T08:04:37.759Z,37.55
2022-07-29T08:07:04.679Z,35.80
2022-07-29T08:09:31.436Z,36.19
2022-07-29T08:12:00.501Z,34.99
2022-07-29T08:14:27.147Z,36.78
2022-07-29T08:16:54.715Z,39.61
2022-07-29T08:19:21.585Z,37.78
2022-07-29T08:21:48.739Z,37.38
2022-07-29T08:24:33.935Z,35.57
2022-07-29T08:27:00.758Z,36.39
2022-07-29T08:29:27.455Z,33.07
2022-07-29T08:31:54.584Z,33.03
2022-07-29T08:34:25.715Z,35.24
2022-07-29T08:36:54.629Z,36.95
2022-07-29T08:39:21.294Z,38.11
2022-07-29T08:41:48.786Z,39.47
2022-07-29T08:44:30.721Z,37.94
2022-07-29T08:46:58.412Z,40.55
2022-07-29T08:49:25.312Z,39.36
2022-07-29T08:51:54.967Z,39.00
2022-07-29T08:54:24.403Z,41.44
2022-07-29T08:56:52.065Z,43.43
2022-07-29T08:59:23.723Z,43.44
2022-07-29T09:01:53.770Z,42.87
2022-07-29T09:04:22.055Z,44.44
2022-07-29T09:06:52.321Z,43.65
2022-07-29T09:09:19.131Z,45.58
2022-07-29T09:11:45.982Z,44.25
2022-07-29T09:14:14.672Z,45.72
2022-07-29T09:16:58.143Z,45.19
2022-07-29T09:19:32.303Z,45.04
2022-07-29T09:22:01.176Z,45.25
2022-07-29T09:24:48.501Z,46.19
2022-07-29T09:27:27.578Z,45.23
2022-07-29T09:30:04.822Z,48.59
2022-07-29T09:32:32.008Z,45.95
2022-07-29T09:35:21.739Z,45.50
2022-07-29T09:37:48.744Z,44.28
2022-07-29T09:40:18.530Z,46.45
2022-07-29T09:42:45.636Z,44.34
2022-07-29T09:45:13.445Z,44.01
2022-07-29T09:47:49.851Z,43.93
2022-07-29T09:50:17.308Z,43.96
2022-07-29T09:52:52.533Z,41.11
2022-07-29T09:55:19.930Z,41.93
2022-07-29T09:57:47.952Z,42.34
2022-07-29T10:00:19.932Z,42.91
2022-07-29T10:02:47.146Z,44.21
2022-07-29T10:05:24.159Z,45.15
2022-07-29T10:07:54.308Z,46.08
2022-07-29T10:10:31.754Z,47.89
2022-07-29T10:13:07.831Z,46.81
2022-07-29T10:15:40.043Z,46.44
2022-07-29T10:18:10.142Z,47.36
2022-07-29T10:20:37.991Z,48.41
2022-07-29T10:23:05.578Z,49.75
2022-07-29T10:25:32.826Z,48.27
2022-07-29T10:28:00.087Z,48.26
2022-07-29T10:30:28.534Z,47.41
2022-07-29T10:33:01.274Z,51.15
2022-07-29T10:36:06.506Z,49.76
2022-07-29T10:38:48.407Z,48.30
2022-07-29T10:41:43.730Z,48.11
2022-07-29T10:44:23.143Z,47.57
2022-07-29T10:46:52.345Z,49.83
2022-07-29T10:49:25.096Z,47.75
2022-07-29T10:52:02.674Z,44.92
2022-07-29T10:54:36.333Z,47.62
2022-07-29T10:57:53.775Z,45.76
2022-07-29T11:00:17.070Z,43.48
2022-07-29T11:02:46.925Z,44.17
2022-07-29T11:05:21.868Z,41.96
2022-07-29T11:08:20.116Z,40.95
2022-07-29T11:10:49.854Z,36.88
2022-07-29T11:14:01.557Z,35.14
2022-07-29T11:17:05.921Z,37.75
2022-07-29T11:19:34.391Z,34.55
2022-07-29T11:22:02.788Z,36.00
2022-07-29T11:24:33.090Z,32.87
2022-07-29T11:27:18.373Z,34.80
2022-07-29T11:29:58.554Z,32.22
2022-07-29T11:32:29.194Z,30.50
2022-07-29T11:35:22.291Z,33.06
2022-07-29T11:38:23.628Z,32.10
2022-07-29T11:41:18.490Z,36.10
2022-07-29T11:46:49.697Z,36.86
2022-07-29T11:49:31.982Z,37.62
2022-07-29T11:52:02.495Z,37.57
2022-07-29T11:54:38.956Z,39.45
2022-07-29T11:57:22.895Z,37.51
2022-07-29T12:00:12.667Z,39.43
2022-07-29T12:02:48.616Z,42.22
2022-07-29T12:05:23.993Z,40.65
2022-07-29T12:08:14.727Z,38.21
2022-07-29T12:10:43.066Z,39.56
2022-07-29T12:13:11.589Z,43.16
2022-07-29T12:15:47.241Z,43.21
2022-07-29T12:18:18.337Z,41.53
2022-07-29T12:20:46.536Z,43.71
2022-07-29T12:23:13.914Z,43.53
2022-07-29T12:25:44.543Z,44.85
2022-07-29T12:28:27.578Z,44.15
2022-07-29T12:30:54.838Z,44.78
2022-07-29T12:33:31.001Z,43.92
2022-07-29T12:36:07.306Z,43.28
2022-07-29T12:38:41.230Z,43.83
2022-07-29T12:41:07.998Z,41.78
2022-07-29T12:43:34.929Z,44.81
2022-07-29T12:46:13.829Z,43.96
2022-07-29T12:48:42.909Z,43.46
2022-07-29T12:51:11.070Z,44.52
2022-07-29T12:53:38.919Z,43.27
2022-07-29T12:56:20.524Z,44.37
2022-07-29T12:58:53.744Z,45.18
2022-07-29T13:01:21.832Z,45.47
2022-07-29T13:03:57.424Z,41.98
2022-07-29T13:06:50.914Z,43.68
2022-07-29T13:09:20.470Z,45.32
2022-07-29T13:11:54.414Z,45.47
2022-07-29T13:14:37.859Z,44.06
2022-07-29T13:17:19.132Z,47.01
2022-07-29T13:19:54.112Z,47.18
2022-07-29T13:22:23.912Z,44.49
2022-07-29T13:24:58.447Z,44.29
2022-07-29T13:27:27.112Z,43.40
2022-07-29T13:29:57.467Z,44.95
2022-07-29T13:32:28.404Z,40.57
2022-07-29T13:34:57.520Z,39.16
2022-07-29T13:37:25.039Z,37.98
2022-07-29T13:39:53.357Z,40.79
2022-07-29T13:42:20.641Z,38.98
2022-07-29T13:44:49.589Z,38.65
2022-07-29T13:47:17.208Z,39.40
2022-07-29T13:49:43.890Z,41.47
2022-07-29T13:52:11.090Z,40.44
2022-07-29T13:54:42.386Z,41.64
2022-07-29T13:57:11.746Z,40.96
2022-07-29T13:59:41.772Z,41.09
2022-07-29T14:02:09.897Z,37.70
2022-07-29T14:04:36.871Z,36.74
2022-07-29T14:07:07.306Z,37.82
2022-07-29T14:09:40.995Z,36.18
2022-07-29T14:12:08.930Z,36.10
2022-07-29T14:14:37.348Z,34.73
2022-07-29T14:17:04.715Z,38.11
2022-07-29T14:19:33.047Z,36.41
2022-07-29T14:22:00.202Z,34.84
2022-07-29T14:24:27.426Z,35.42
2022-07-29T14:26:54.194Z,36.51
2022-07-29T14:29:21.063Z,38.55
2022-07-29T14:31:47.765Z,38.09
2022-07-29T14:34:16.427Z,37.38
2022-07-29T14:36:43.286Z,37.13
2022-07-29T14:39:09.947Z,38.33
2022-07-29T14:41:36.785Z,34.75
2022-07-29T14:44:03.775Z,35.15
2022-07-29T14:46:30.532Z,34.96
2022-07-29T14:48:57.431Z,35.69
2022-07-29T14:51:24.282Z,36.65
2022-07-29T14:53:59.164Z,37.15
2022-07-29T14:56:46.813Z,37.01
2022-07-29T14:59:12.468Z,35.92
2022-07-29T15:01:39.194Z,38.72
2022-07-29T15:04:05.946Z,37.79
2022-07-29T15:06:32.660Z,37.80
2022-07-29T15:08:59.399Z,39.26
2022-07-29T15:11:26.477Z,38.28
2022-07-29T15:13:53.338Z,38.32
2022-07-29T15:16:20.154Z,37.85
2022-07-29T15:18:46.904Z,39.21
2022-07-29T15:21:13.571Z,39.78
2022-07-29T15:23:40.316Z,39.24
2022-07-29T15:26:06.987Z,37.04
2022-07-29T15:28:33.750Z,38.79
2022-07-29T15:31:00.402Z,39.31
2022-07-29T15:33:27.404Z,39.08
2022-07-29T15:35:54.110Z,40.08
2022-07-29T15:38:20.856Z,39.16
2022-07-29T15:40:55.826Z,40.60
2022-07-29T15:43:22.824Z,39.20
2022-07-29T15:46:08.687Z,39.19
2022-07-29T15:48:39.245Z,40.90
2022-07-29T15:51:06.071Z,41.00
2022-07-29T15:53:33.095Z,41.02
2022-07-29T15:56:02.145Z,40.85
2022-07-29T15:58:28.903Z,39.96
2022-07-29T16:00:55.800Z,39.67
2022-07-29T16:03:22.991Z,40.27
2022-07-29T16:05:49.754Z,40.86
2022-07-29T16:08:18.924Z,40.25
2022-07-29T16:10:45.620Z,40.72
2022-07-29T16:13:12.265Z,41.12
2022-07-29T16:15:45.165Z,40.90
2022-07-29T16:18:30.303Z,41.52
2022-07-29T16:20:57.311Z,42.80
2022-07-29T16:23:24.742Z,42.29
2022-07-29T16:25:59.707Z,41.83
2022-07-29T16:28:27.851Z,42.06
2022-07-29T16:30:54.687Z,42.14
2022-07-29T16:33:21.399Z,43.11
2022-07-29T16:35:48.115Z,42.85
2022-07-29T16:38:14.848Z,42.21
2022-07-29T16:40:42.109Z,43.18
2022-07-29T16:43:09.066Z,42.82
2022-07-29T16:45:45.145Z,43.16
2022-07-29T16:48:14.078Z,43.06
2022-07-29T16:50:41.208Z,44.08
2022-07-29T16:53:10.476Z,44.39
2022-07-29T16:55:37.326Z,44.66
2022-07-29T16:58:04.035Z,44.67
2022-07-29T17:00:30.843Z,45.28
2022-07-29T17:02:57.779Z,46.54
2022-07-29T17:05:24.512Z,47.50
2022-07-29T17:07:51.197Z,48.47
2022-07-29T17:10:18.021Z,48.97
2022-07-29T17:12:44.764Z,50.78
2022-07-29T17:15:12.232Z,50.57
2022-07-29T17:17:55.288Z,50.59
2022-07-29T17:20:23.866Z,50.52
2022-07-29T17:22:50.566Z,50.72
2022-07-29T17:25:21.073Z,49.84
2022-07-29T17:27:50.441Z,50.05
2022-07-29T17:30:17.942Z,51.05
2022-07-29T17:32:44.725Z,53.12
2022-07-29T17:35:30.112Z,54.03
2022-07-29T17:37:57.184Z,53.78
2022-07-29T17:40:23.902Z,53.95
2022-07-29T17:42:50.573Z,53.01
2022-07-29T17:45:17.386Z,53.18
2022-07-29T17:47:45.515Z,53.67
2022-07-29T17:50:12.162Z,54.11
2022-07-29T17:52:39.227Z,54.42
2022-07-29T17:55:07.258Z,53.39
2022-07-29T17:57:34.253Z,55.05
2022-07-29T18:00:01.104Z,55.69
2022-07-29T18:02:28.485Z,56.31
2022-07-29T18:04:55.385Z,56.63
2022-07-29T18:07:22.139Z,57.38
2022-07-29T18:09:48.806Z,56.89
2022-07-29T18:12:16.036Z,57.45
2022-07-29T18:14:42.743Z,58.00
2022-07-29T18:17:09.416Z,59.40
2022-07-29T18:19:36.163Z,59.85
2022-07-29T18:22:05.322Z,59.88
2022-07-29T18:24:32.764Z,59.61
2022-07-29T18:26:59.848Z,59.80
2022-07-29T18:29:29.012Z,59.76
2022-07-29T18:31:56.364Z,58.35
2022-07-29T18:34:23.161Z,58.28
2022-07-29T18:36:49.890Z,58.40
2022-07-29T18:39:20.736Z,59.11
2022-07-29T18:41:50.153Z,59.54
2022-07-29T18:44:21.665Z,59.90
2022-07-29T18:46:49.073Z,59.51
2022-07-29T18:49:16.005Z,59.34
2022-07-29T18:51:42.844Z,60.05
2022-07-29T18:54:10.547Z,60.72
2022-07-29T18:56:37.432Z,59.41
2022-07-29T18:59:04.916Z,59.24
2022-07-29T19:01:32.284Z,60.33
2022-07-29T19:03:59.802Z,60.46
2022-07-29T19:06:26.622Z,60.33
2022-07-29T19:08:53.656Z,61.55
2022-07-29T19:11:20.336Z,61.84
2022-07-29T19:13:49.323Z,61.45
2022-07-29T19:16:16.094Z,61.36
2022-07-29T19:18:43.597Z,61.47
2022-07-29T19:21:11.164Z,62.20
2022-07-29T19:24:01.390Z,61.33
2022-07-29T19:26:26.261Z,61.19
2022-07-29T19:28:53.352Z,61.10
2022-07-29T19:31:20.210Z,61.20
2022-07-29T19:33:47.053Z,60.52
2022-07-29T19:36:13.765Z,60.38
2022-07-29T19:38:40.534Z,60.77
2022-07-29T19:41:07.321Z,60.26
2022-07-29T19:43:50.431Z,60.61
2022-07-29T19:46:22.916Z,62.06
2022-07-29T19:48:50.040Z,62.06
2022-07-29T19:51:17.620Z,61.59
2022-07-29T19:53:44.415Z,61.54
2022-07-29T19:56:11.147Z,60.62
2022-07-29T19:58:39.163Z,58.88
2022-07-29T20:01:10.506Z,59.08
2022-07-29T20:03:39.960Z,59.15
2022-07-29T20:06:07.564Z,59.86
2022-07-29T20:08:34.670Z,61.42
2022-07-29T20:11:01.789Z,63.71
2022-07-29T20:13:31.251Z,66.48
2022-07-29T20:15:58.250Z,67.88
2022-07-29T20:18:25.041Z,71.70
2022-07-29T20:20:51.897Z,74.31
2022-07-29T20:23:19.386Z,75.95
2022-07-29T20:25:47.183Z,76.90
2022-07-29T20:28:14.300Z,78.89
2022-07-29T20:30:41.726Z,81.32
2022-07-29T20:33:08.460Z,81.73
2022-07-29T20:35:35.142Z,82.58
2022-07-29T20:38:01.930Z,83.59
2022-07-29T20:40:29.300Z,85.33
2022-07-29T20:42:56.145Z,86.18
2022-07-29T20:45:23.577Z,87.31
2022-07-29T20:47:51.925Z,86.63
2022-07-29T20:50:20.613Z,87.02
2022-07-29T20:52:51.182Z,89.17
2022-07-29T20:55:17.988Z,90.00
2022-07-29T20:57:44.676Z,87.51
2022-07-29T21:00:11.940Z,89.71
2022-07-29T21:02:39.045Z,91.68
2022-07-29T21:05:06.519Z,92.95
2022-07-29T21:07:33.415Z,93.88
2022-07-29T21:10:00.180Z,93.83
2022-07-29T21:12:28.615Z,93.66
2022-07-29T21:14:55.387Z,92.73
2022-07-29T21:17:22.729Z,91.79
2022-07-29T21:19:52.739Z,92.51
2022-07-29T21:22:21.900Z,93.18
2022-07-29T21:24:49.232Z,93.85
2022-07-29T21:27:34.524Z,94.57
2022-07-29T21:30:01.438Z,95.68
2022-07-29T21:32:31.164Z,97.29
2022-07-29T21:34:58.603Z,95.88
2022-07-29T21:37:25.553Z,94.74
2022-07-29T21:39:53.647Z,95.40
2022-07-29T21:42:20.404Z,98.22
2022-07-29T21:44:47.285Z,99.16
2022-07-29T21:47:14.103Z,98.60
2022-07-29T21:49:40.756Z,98.50
2022-07-29T21:52:08.051Z,99.03
2022-07-29T21:54:35.842Z,98.86
2022-07-29T21:57:05.002Z,98.71
2022-07-29T21:59:32.017Z,99.61
2022-07-29T22:02:01.719Z,99.51
2022-07-29T22:04:29.610Z,98.36
2022-07-29T22:06:57.745Z,97.40
2022-07-29T22:09:25.416Z,97.68
2022-07-29T22:11:52.284Z,97.79
2022-07-29T22:14:19.191Z,97.58
2022-07-29T22:16:46.509Z,97.30
2022-07-29T22:19:14.668Z,97.19
2022-07-29T22:21:41.854Z,97.52
2022-07-29T22:24:09.897Z,98.21
2022-07-29T22:26:37.883Z,98.27
2022-07-29T22:29:04.611Z,97.65
2022-07-29T22:31:31.630Z,97.51
2022-07-29T22:33:58.357Z,97.78
2022-07-29T22:36:25.930Z,97.36
2022-07-29T22:38:52.683Z,97.45
2022-07-29T22:41:19.386Z,97.32
2022-07-29T22:43:46.111Z,97.50
2022-07-29T22:46:12.941Z,98.12
2022-07-29T22:48:39.695Z,99.00
2022-07-29T22:51:06.442Z,99.30
2022-07-29T22:53:33.174Z,98.44
2022-07-29T22:55:59.934Z,97.01
2022-07-29T22:58:26.636Z,95.78
2022-07-29T23:00:53.480Z,94.83
2022-07-29T23:03:20.702Z,94.88
2022-07-29T23:05:47.481Z,94.83
2022-07-29T23:08:14.177Z,94.81
2022-07-29T23:10:40.826Z,95.54
2022-07-29T23:13:07.511Z,96.51
2022-07-29T23:15:34.317Z,97.13
2022-07-29T23:18:00.977Z,98.24
2022-07-29T23:20:28.026Z,98.90
2022-07-29T23:22:54.944Z,98.98
2022-07-29T23:25:21.668Z,99.27
2022-07-29T23:27:48.526Z,98.98
2022-07-29T23:30:15.368Z,98.96
2022-07-29T23:32:42.082Z,99.35
2022-07-29T23:35:09.298Z,98.41
2022-07-29T23:37:36.653Z,97.80
2022-07-29T23:40:04.929Z,97.67
2022-07-29T23:42:31.629Z,98.13
2022-07-29T23:44:58.291Z,98.97
2022-07-29T23:47:25.017Z,99.68
2022-07-29T23:49:51.727Z,99.74
2022-07-29T23:52:18.503Z,100.00
2022-07-29T23:54:45.230Z,100.00
2022-07-29T23:57:12.042Z,100.00
2022-07-29T23:59:38.831Z,100.00
